Time;durP1;ratioP1;P1;durP2;ratioP2;P2;SDS_P1;SDS_P2;PMS_P1;PMS_P2;Temp;Humidity;BMP_temperature;BMP_pressure;BME280_temperature;BME280_humidity;BME280_pressure;Samples;Min_cycle;Max_cycle;Signal;HPM_P1;HPM_P2
2022/10/25 00:00:01;;;;;;;;;4.00;2.00;;;;;16.69;61.99;101070.22;4941145;28;45236;-57
2022/10/25 00:02:31;;;;;;;;;3.75;1.50;;;;;16.70;62.15;101066.66;4940879;28;45287;-58
2022/10/25 00:04:56;;;;;;;;;2.75;1.50;;;;;16.70;61.93;101067.53;4939996;28;45330;-57
2022/10/25 00:07:21;;;;;;;;;1.75;1.75;;;;;16.65;62.00;101068.59;4941204;28;45469;-57
2022/10/25 00:09:47;;;;;;;;;4.75;2.25;;;;;16.65;61.82;101074.75;4940850;28;46527;-58
2022/10/25 00:12:12;;;;;;;;;3.00;1.00;;;;;16.64;62.23;101073.03;4939221;28;57045;-57
2022/10/25 00:14:37;;;;;;;;;3.00;2.25;;;;;16.64;61.82;101073.03;4941145;28;45266;-57
2022/10/25 00:17:03;;;;;;;;;4.25;2.25;;;;;16.63;61.88;101078.38;4940886;28;45390;-57
2022/10/25 00:19:28;;;;;;;;;0.75;0.75;;;;;16.62;61.86;101084.63;4941239;28;45398;-57
2022/10/25 00:21:53;;;;;;;;;1.50;0.50;;;;;16.62;62.08;101074.00;4941823;28;45308;-57
2022/10/25 00:24:19;;;;;;;;;2.00;2.00;;;;;16.59;62.20;101077.66;4944413;28;45287;-57
2022/10/25 00:26:44;;;;;;;;;1.25;1.00;;;;;16.60;62.12;101082.00;4944137;28;45231;-57
2022/10/25 00:29:10;;;;;;;;;3.75;1.00;;;;;16.57;61.71;101079.47;4944445;28;45219;-57
2022/10/25 00:31:36;;;;;;;;;1.50;1.00;;;;;16.57;62.19;101079.47;4943738;28;47173;-57
2022/10/25 00:34:02;;;;;;;;;5.00;1.75;;;;;16.57;61.97;101075.00;4944355;28;45303;-57
2022/10/25 00:36:27;;;;;;;;;1.25;1.25;;;;;16.56;62.24;101083.91;4943952;28;45222;-57
2022/10/25 00:38:56;;;;;;;;;2.25;2.25;;;;;16.55;62.24;101076.88;4943052;28;45747;-57
2022/10/25 00:41:25;;;;;;;;;2.25;1.00;;;;;16.54;61.96;101085.75;4943814;28;45340;-56
2022/10/25 00:44:15;;;;;;;;;1.00;1.00;;;;;16.52;62.13;101076.97;4942997;28;45183;-57
2022/10/25 00:46:43;;;;;;;;;3.00;1.75;;;;;16.49;61.79;101071.78;4943599;28;45404;-56
2022/10/25 00:49:20;;;;;;;;;1.00;1.00;;;;;16.48;62.07;101080.66;4943633;28;45396;-56
2022/10/25 00:51:52;;;;;;;;;2.00;1.00;;;;;16.48;61.91;101088.59;4942509;28;46355;-57
2022/10/25 00:54:27;;;;;;;;;1.00;1.00;;;;;16.46;62.11;101089.56;4943839;28;45350;-57
2022/10/25 00:56:56;;;;;;;;;2.00;0.75;;;;;16.44;62.33;101094.06;4943723;28;45199;-57
2022/10/25 00:59:25;;;;;;;;;2.50;2.00;;;;;16.41;62.36;101089.72;4943438;28;45457;-57
2022/10/25 01:01:54;;;;;;;;;4.00;2.00;;;;;16.45;62.28;101093.13;4943422;28;45272;-58
2022/10/25 01:04:24;;;;;;;;;3.00;1.50;;;;;16.43;62.36;101093.19;4943521;28;45540;-57
2022/10/25 01:06:51;;;;;;;;;2.00;2.00;;;;;16.44;62.46;101089.63;4943719;28;45310;-57
2022/10/25 01:09:25;;;;;;;;;1.50;1.00;;;;;16.44;62.24;101104.66;4943444;28;45315;-57
2022/10/25 01:11:50;;;;;;;;;4.25;1.75;;;;;16.43;62.38;101103.81;4943359;28;45485;-56
2022/10/25 01:14:16;;;;;;;;;2.00;0.00;;;;;16.46;62.11;101100.19;4943556;28;45271;-57
2022/10/25 01:17:00;;;;;;;;;1.00;1.00;;;;;16.47;62.49;101105.44;4943370;28;45267;-57
2022/10/25 01:19:45;;;;;;;;;0.25;0.25;;;;;16.48;62.52;101103.66;4943492;28;45527;-57
2022/10/25 01:22:26;;;;;;;;;4.50;2.00;;;;;16.49;61.90;101108.03;4943098;28;45410;-58
2022/10/25 01:25:02;;;;;;;;;1.00;1.00;;;;;16.48;62.12;101101.88;4943529;28;45304;-56
2022/10/25 01:27:27;;;;;;;;;3.75;2.00;;;;;16.47;62.10;101100.13;4943311;28;45428;-56
2022/10/25 01:30:15;;;;;;;;;2.25;1.75;;;;;16.46;62.05;101106.34;4943238;28;45343;-57
2022/10/25 01:33:09;;;;;;;;;2.75;2.00;;;;;16.44;62.24;101104.66;4942733;28;46311;-57
2022/10/25 01:35:40;;;;;;;;;1.00;1.00;;;;;16.44;62.43;101099.34;4933653;28;45383;-57
2022/10/25 01:38:19;;;;;;;;;3.50;1.00;;;;;16.42;62.53;101099.41;4943192;28;45454;-57
2022/10/25 01:41:00;;;;;;;;;1.50;1.50;;;;;16.42;62.42;101112.69;4941736;28;45615;-57
2022/10/25 01:43:46;;;;;;;;;4.75;4.00;;;;;16.41;62.53;101101.22;4942853;28;46442;-57
2022/10/25 01:46:27;;;;;;;;;1.00;1.00;;;;;16.40;62.20;101102.13;4942767;28;45461;-57
2022/10/25 01:49:03;;;;;;;;;1.00;1.00;;;;;16.37;62.70;101104.00;4942955;28;45248;-57
2022/10/25 01:51:28;;;;;;;;;3.50;1.25;;;;;16.35;62.41;101095.22;4942824;28;45247;-56
2022/10/25 01:53:54;;;;;;;;;2.25;2.00;;;;;16.35;62.17;101097.88;4942955;28;46448;-57
2022/10/25 01:56:45;;;;;;;;;3.00;3.00;;;;;16.29;62.48;101087.47;4942669;28;45482;-57
2022/10/25 01:59:16;;;;;;;;;0.50;0.50;;;;;16.33;62.68;101094.44;4938009;28;45326;-57
2022/10/25 02:02:02;;;;;;;;;4.00;1.75;;;;;16.31;62.41;101094.44;4942714;28;45349;-58
2022/10/25 02:04:42;;;;;;;;;3.75;2.00;;;;;16.29;62.53;101100.72;4942286;28;46415;-57
2022/10/25 02:07:17;;;;;;;;;4.75;1.75;;;;;16.27;62.51;101098.13;4942726;28;45390;-56
2022/10/25 02:10:03;;;;;;;;;1.25;1.25;;;;;16.28;62.77;101094.56;4942858;28;45471;-57
2022/10/25 02:12:54;;;;;;;;;1.75;1.75;;;;;16.27;62.57;101105.22;4942453;28;45312;-57
2022/10/25 02:15:38;;;;;;;;;0.75;0.00;;;;;16.24;62.46;101108.84;4942504;28;46074;-57
2022/10/25 02:18:11;;;;;;;;;4.75;1.25;;;;;16.23;62.72;101097.34;4942357;28;45519;-57
2022/10/25 02:20:37;;;;;;;;;2.25;0.75;;;;;16.19;63.03;101103.69;4941182;28;45400;-57
2022/10/25 02:23:05;;;;;;;;;2.00;1.00;;;;;16.17;62.67;101102.84;4942679;28;45344;-57
2022/10/25 02:25:36;;;;;;;;;1.75;1.50;;;;;16.18;62.56;101115.19;4942249;28;45386;-57
2022/10/25 02:28:06;;;;;;;;;3.50;2.25;;;;;16.17;62.74;101113.44;4942395;28;45290;-57
2022/10/25 02:30:34;;;;;;;;;5.00;2.25;;;;;16.18;63.08;101109.91;4942375;28;45437;-57
2022/10/25 02:33:00;;;;;;;;;3.50;2.00;;;;;16.19;62.61;101101.03;4940816;28;45510;-57
2022/10/25 02:35:25;;;;;;;;;3.25;1.25;;;;;16.19;62.86;101108.13;4942041;28;45307;-57
2022/10/25 02:37:51;;;;;;;;;2.00;2.00;;;;;16.17;62.82;101105.50;4942310;28;45148;-58
2022/10/25 02:40:17;;;;;;;;;1.00;1.00;;;;;16.21;62.87;101116.88;4942214;28;45311;-57
2022/10/25 02:42:42;;;;;;;;;5.00;2.00;;;;;16.22;62.46;101111.53;4942202;28;45141;-57
2022/10/25 02:45:08;;;;;;;;;1.00;1.00;;;;;16.24;62.70;101122.09;4939468;28;60502;-56
2022/10/25 02:47:33;;;;;;;;;4.00;2.50;;;;;16.25;62.57;101119.41;4941737;28;45386;-57
2022/10/25 02:49:59;;;;;;;;;4.00;1.00;;;;;16.28;62.84;101117.56;4942151;28;45712;-57
2022/10/25 02:52:24;;;;;;;;;2.00;2.00;;;;;16.29;62.69;101119.28;4942353;28;45351;-57
2022/10/25 02:54:49;;;;;;;;;2.50;1.00;;;;;16.31;62.60;101120.13;4942110;28;45389;-56
2022/10/25 02:57:15;;;;;;;;;3.25;2.00;;;;;16.30;62.78;101111.31;4941659;28;53580;-57
2022/10/25 02:59:40;;;;;;;;;2.00;2.00;;;;;16.33;62.90;101123.59;4940623;28;45444;-57
2022/10/25 03:02:05;;;;;;;;;4.75;2.00;;;;;16.33;62.68;101110.34;4941879;28;45379;-56
2022/10/25 03:04:31;;;;;;;;;3.25;2.50;;;;;16.33;62.59;101107.69;4941750;28;46109;-57
2022/10/25 03:06:56;;;;;;;;;1.50;1.50;;;;;16.35;62.55;101108.47;4941881;28;45392;-57
2022/10/25 03:09:22;;;;;;;;;2.50;2.50;;;;;16.35;63.18;101114.66;4941823;28;45369;-57
2022/10/25 03:11:47;;;;;;;;;2.75;2.00;;;;;16.36;62.68;101107.56;4941858;28;45455;-57
2022/10/25 03:14:12;;;;;;;;;3.00;2.00;;;;;16.33;62.82;101113.84;4941793;28;45294;-57
2022/10/25 03:16:38;;;;;;;;;4.00;2.00;;;;;16.29;63.02;101106.03;4941878;28;45320;-57
2022/10/25 03:19:03;;;;;;;;;2.00;2.00;;;;;16.30;62.73;101105.13;4941693;28;45533;-57
2022/10/25 03:21:29;;;;;;;;;4.00;2.00;;;;;16.25;63.06;101113.22;4941769;28;45203;-57
2022/10/25 03:23:54;;;;;;;;;4.00;2.00;;;;;16.29;62.98;101108.69;4941578;28;45283;-56
2022/10/25 03:26:19;;;;;;;;;4.00;3.00;;;;;16.28;62.83;101106.97;4941711;28;45265;-57
2022/10/25 03:28:45;;;;;;;;;4.00;2.00;;;;;16.27;63.16;101116.69;4941583;28;45237;-57
2022/10/25 03:31:12;;;;;;;;;6.00;2.00;;;;;16.22;63.19;101115.97;4941423;28;45361;-57
2022/10/25 03:33:38;;;;;;;;;1.75;1.75;;;;;16.24;63.55;101122.09;4941461;28;45272;-57
2022/10/25 03:36:04;;;;;;;;;1.75;1.00;;;;;16.27;63.25;101129.94;4941527;28;45368;-57
2022/10/25 03:38:29;;;;;;;;;6.25;3.50;;;;;16.29;63.06;101127.25;4941610;28;45330;-56
2022/10/25 03:40:54;;;;;;;;;4.00;2.75;;;;;16.25;63.37;101127.34;4941257;28;45221;-58
2022/10/25 03:43:20;;;;;;;;;1.75;1.25;;;;;16.27;63.37;101129.09;4941229;28;46132;-57
2022/10/25 03:45:45;;;;;;;;;0.50;0.25;;;;;16.28;63.16;101122.88;4941466;28;45325;-57
2022/10/25 03:48:11;;;;;;;;;2.00;2.00;;;;;16.27;63.62;101124.63;4941111;28;45376;-57
2022/10/25 03:50:36;;;;;;;;;6.75;3.25;;;;;16.28;63.17;101128.19;4941409;28;45513;-58
2022/10/25 03:53:03;;;;;;;;;3.00;3.00;;;;;16.29;63.27;101125.47;4941113;28;46095;-57
2022/10/25 03:55:28;;;;;;;;;2.50;2.00;;;;;16.30;63.45;101128.97;4941682;28;45175;-56
2022/10/25 03:57:54;;;;;;;;;1.75;1.75;;;;;16.28;63.26;101130.84;4944433;28;45278;-56
2022/10/25 04:00:19;;;;;;;;;3.50;2.00;;;;;16.31;63.47;101136.88;4944673;28;45243;-57
2022/10/25 04:02:44;;;;;;;;;4.00;3.00;;;;;16.33;63.58;101136.84;4944174;28;47198;-57
2022/10/25 04:05:09;;;;;;;;;2.00;2.00;;;;;16.33;63.19;101131.56;4944601;28;45235;-57
2022/10/25 04:07:35;;;;;;;;;2.50;2.00;;;;;16.36;63.20;101134.09;4944621;28;45243;-56
2022/10/25 04:10:01;;;;;;;;;6.00;2.00;;;;;16.35;63.40;101129.69;4943330;28;45240;-56
2022/10/25 04:12:26;;;;;;;;;3.75;3.25;;;;;16.30;63.58;101129.88;4944079;28;45287;-56
2022/10/25 04:14:51;;;;;;;;;4.25;3.50;;;;;16.31;63.48;101128.06;4944827;28;45335;-56
2022/10/25 04:17:16;;;;;;;;;2.75;2.00;;;;;16.29;63.67;101125.47;4944192;28;45226;-57
2022/10/25 04:19:42;;;;;;;;;2.50;1.00;;;;;16.29;63.82;101122.81;4943266;28;45200;-56
2022/10/25 04:22:12;;;;;;;;;1.00;1.00;;;;;16.32;63.29;101128.00;4944335;28;45370;-56
2022/10/25 04:24:37;;;;;;;;;4.00;3.00;;;;;16.34;63.38;101130.59;4943249;28;45307;-55
2022/10/25 04:27:02;;;;;;;;;2.75;2.50;;;;;16.29;63.67;101132.53;4944073;28;45303;-56
2022/10/25 04:29:28;;;;;;;;;6.50;2.25;;;;;16.30;63.79;101123.69;4944323;28;45520;-58
2022/10/25 04:31:53;;;;;;;;;3.00;2.00;;;;;16.35;63.85;101132.34;4943858;28;45396;-55
2022/10/25 04:34:18;;;;;;;;;3.75;2.50;;;;;16.35;63.50;101132.34;4943110;28;45787;-56
2022/10/25 04:36:44;;;;;;;;;6.00;3.00;;;;;16.36;63.72;101134.97;4944064;28;45307;-55
2022/10/25 04:39:09;;;;;;;;;2.00;1.75;;;;;16.37;63.90;101141.13;4943955;28;51131;-55
2022/10/25 04:41:34;;;;;;;;;3.75;3.00;;;;;16.39;63.61;101144.63;4943723;28;46512;-54
2022/10/25 04:44:00;;;;;;;;;3.00;3.00;;;;;16.38;63.65;101140.22;4944226;28;45243;-56
2022/10/25 04:46:25;;;;;;;;;3.75;2.00;;;;;16.39;63.57;101140.16;4943641;28;46498;-56
2022/10/25 04:48:50;;;;;;;;;1.00;1.00;;;;;16.39;63.67;101134.00;4943953;28;45484;-56
2022/10/25 04:51:16;;;;;;;;;7.00;2.50;;;;;16.36;63.91;101137.63;4943702;28;46028;-55
2022/10/25 04:53:41;;;;;;;;;2.50;1.00;;;;;16.37;63.84;101139.34;4944113;28;45378;-56
2022/10/25 04:56:10;;;;;;;;;3.75;3.00;;;;;16.38;63.88;101142.88;4943814;28;45540;-56
2022/10/25 04:58:35;;;;;;;;;3.00;3.00;;;;;16.34;63.72;101146.53;4942466;28;45472;-56
2022/10/25 05:01:04;;;;;;;;;1.75;1.50;;;;;16.36;63.71;101144.69;4943160;28;46015;-55
2022/10/25 05:03:29;;;;;;;;;3.50;1.00;;;;;16.35;63.75;101138.53;4943953;28;45396;-56
2022/10/25 05:06:04;;;;;;;;;2.75;2.75;;;;;16.34;63.60;101141.22;4943617;28;45200;-56
2022/10/25 05:08:29;;;;;;;;;4.50;1.50;;;;;16.30;64.49;101144.88;4942827;28;45461;-56
2022/10/25 05:10:54;;;;;;;;;2.00;2.00;;;;;16.32;63.91;101143.91;4943197;28;52364;-56
2022/10/25 05:13:20;;;;;;;;;3.00;1.75;;;;;16.28;64.12;101138.78;4943566;28;45246;-56
2022/10/25 05:15:56;;;;;;;;;2.00;2.00;;;;;16.29;63.98;101144.03;4943660;28;45303;-55
2022/10/25 05:18:21;;;;;;;;;4.00;2.75;;;;;16.31;63.99;101151.94;4943505;28;45176;-55
2022/10/25 05:20:55;;;;;;;;;6.00;3.00;;;;;16.27;64.28;101153.81;4942978;28;46408;-57
2022/10/25 05:23:22;;;;;;;;;1.50;1.50;;;;;16.23;64.31;101149.53;4943482;28;45203;-55
2022/10/25 05:25:48;;;;;;;;;4.00;2.25;;;;;16.24;64.32;101149.47;4942113;28;45319;-55
2022/10/25 05:28:14;;;;;;;;;3.50;2.00;;;;;16.22;64.46;101148.63;4941908;28;45373;-56
2022/10/25 05:30:43;;;;;;;;;2.75;2.00;;;;;16.24;64.77;101159.22;4943206;28;47378;-56
2022/10/25 05:33:08;;;;;;;;;5.00;2.00;;;;;16.23;63.96;101155.69;4943095;28;45372;-56
2022/10/25 05:35:34;;;;;;;;;4.50;1.00;;;;;16.20;64.35;101161.09;4943421;28;45229;-56
2022/10/25 05:38:00;;;;;;;;;3.00;2.00;;;;;16.21;64.61;101162.84;4943193;28;45608;-56
2022/10/25 05:40:25;;;;;;;;;2.75;2.00;;;;;16.19;64.48;101154.06;4943103;28;46088;-56
2022/10/25 05:42:52;;;;;;;;;4.50;2.25;;;;;16.22;64.07;101159.25;4943035;28;45231;-54
2022/10/25 05:45:17;;;;;;;;;4.00;3.25;;;;;16.20;64.20;101149.59;4942000;28;45243;-56
2022/10/25 05:47:42;;;;;;;;;3.00;1.00;;;;;16.20;64.26;101158.44;4942568;28;45253;-56
2022/10/25 05:50:08;;;;;;;;;5.75;2.50;;;;;16.22;64.01;101159.25;4943002;28;46195;-56
2022/10/25 05:52:33;;;;;;;;;3.50;2.50;;;;;16.24;64.15;101154.78;4943087;28;45459;-56
2022/10/25 05:54:58;;;;;;;;;4.00;2.00;;;;;16.24;64.02;101152.13;4943191;28;45485;-56
2022/10/25 05:57:24;;;;;;;;;2.50;2.00;;;;;16.23;64.40;101154.84;4942553;28;47719;-55
2022/10/25 05:59:49;;;;;;;;;4.50;2.50;;;;;16.22;64.15;101151.28;4941488;28;48908;-56
2022/10/25 06:02:14;;;;;;;;;2.00;2.00;;;;;16.21;64.05;101152.22;4942638;28;45521;-56
2022/10/25 06:04:40;;;;;;;;;2.25;2.00;;;;;16.17;64.47;101155.88;4942855;28;47155;-57
2022/10/25 06:07:05;;;;;;;;;5.25;2.00;;;;;16.20;64.27;101155.78;4942657;28;46711;-56
2022/10/25 06:09:30;;;;;;;;;4.00;2.75;;;;;16.21;64.52;101156.66;4940952;28;45642;-56
2022/10/25 06:11:55;;;;;;;;;4.00;2.75;;;;;16.18;64.10;101152.31;4927424;28;45547;-52
2022/10/25 06:14:21;;;;;;;;;2.00;1.75;;;;;16.21;64.48;101156.66;4940405;28;45430;-56
2022/10/25 06:16:46;;;;;;;;;2.00;2.00;;;;;16.22;64.43;101159.25;4942160;28;45425;-56
2022/10/25 06:19:11;;;;;;;;;3.75;3.75;;;;;16.25;64.25;101151.22;4938343;28;52043;-58
2022/10/25 06:21:37;;;;;;;;;2.50;1.25;;;;;16.30;64.45;101158.16;4938467;28;46185;-58
2022/10/25 06:24:03;;;;;;;;;4.00;1.50;;;;;16.30;64.37;101158.16;4942595;28;45295;-59
2022/10/25 06:26:29;;;;;;;;;2.00;1.00;;;;;16.33;64.50;101155.41;4941988;28;45252;-58
2022/10/25 06:28:58;;;;;;;;;8.50;6.00;;;;;16.35;64.19;101156.22;4933472;28;46174;-61
2022/10/25 06:31:23;;;;;;;;;6.00;3.00;;;;;16.37;64.08;101149.09;4941824;28;45319;-59
2022/10/25 06:33:49;;;;;;;;;3.00;1.75;;;;;16.40;64.11;101157.81;4942197;28;45350;-67
2022/10/25 06:36:17;;;;;;;;;4.00;3.50;;;;;16.43;64.18;101156.84;4942073;28;45557;-59
2022/10/25 06:38:44;;;;;;;;;1.00;0.25;;;;;16.45;64.23;101159.44;4942004;28;46642;-59
2022/10/25 06:41:18;;;;;;;;;2.50;2.50;;;;;16.46;64.15;101154.09;4941512;28;46376;-60
2022/10/25 06:43:43;;;;;;;;;4.75;3.75;;;;;16.46;64.07;101170.00;4942096;28;45255;-60
2022/10/25 06:46:25;;;;;;;;;7.00;5.75;;;;;16.46;64.08;101177.09;4940297;28;45191;-61
2022/10/25 06:48:53;;;;;;;;;3.75;3.75;;;;;16.46;64.33;101172.66;4941949;28;46299;-62
2022/10/25 06:51:19;;;;;;;;;5.25;4.75;;;;;16.48;64.23;101180.59;4942148;28;45348;-61
2022/10/25 06:53:44;;;;;;;;;8.25;6.00;;;;;16.52;63.77;101184.88;4941961;28;45287;-61
2022/10/25 06:56:12;;;;;;;;;3.50;3.50;;;;;16.52;63.82;101183.06;4942066;28;45425;-61
2022/10/25 06:58:37;;;;;;;;;5.50;2.75;;;;;16.52;63.93;101180.41;4941793;28;46549;-62
2022/10/25 07:01:09;;;;;;;;;3.50;2.25;;;;;16.52;63.66;101180.41;4940140;28;45414;-63
2022/10/25 07:03:34;;;;;;;;;6.50;4.25;;;;;16.54;63.91;101185.66;4942226;28;45499;-62
2022/10/25 07:06:02;;;;;;;;;3.75;1.75;;;;;16.50;64.03;101182.28;4941785;28;45221;-62
2022/10/25 07:08:27;;;;;;;;;6.25;4.00;;;;;16.51;63.93;101183.97;4941686;28;45283;-63
2022/10/25 07:10:56;;;;;;;;;4.75;4.00;;;;;16.55;63.78;101187.41;4940122;28;45385;-63
2022/10/25 07:13:22;;;;;;;;;2.75;2.00;;;;;16.55;63.82;101193.59;4942163;28;45328;-63
2022/10/25 07:15:47;;;;;;;;;4.00;4.00;;;;;16.58;63.67;101193.50;4941335;28;45428;-63
2022/10/25 07:18:13;;;;;;;;;6.25;4.25;;;;;16.60;63.56;101188.13;4941582;28;46162;-64
2022/10/25 07:20:38;;;;;;;;;3.00;2.00;;;;;16.63;63.59;101189.81;4941519;28;45393;-63
2022/10/25 07:23:03;;;;;;;;;5.00;3.00;;;;;16.60;63.86;101193.44;4941902;28;45305;-61
2022/10/25 07:25:30;;;;;;;;;3.75;3.00;;;;;16.59;63.79;101197.03;4941391;28;45532;-63
2022/10/25 07:27:55;;;;;;;;;3.75;3.25;;;;;16.60;63.96;101201.38;4941610;28;46196;-60
2022/10/25 07:30:20;;;;;;;;;4.75;2.00;;;;;16.60;63.51;101197.88;4940870;28;45254;-61
2022/10/25 07:32:46;;;;;;;;;4.50;2.75;;;;;16.60;63.77;101197.88;4941602;28;45293;-61
2022/10/25 07:35:11;;;;;;;;;4.00;3.75;;;;;16.57;63.54;101197.06;4940136;28;46065;-61
2022/10/25 07:37:36;;;;;;;;;8.50;5.00;;;;;16.64;63.71;101196.84;4941267;28;54264;-61
2022/10/25 07:40:02;;;;;;;;;5.00;3.75;;;;;16.65;63.76;101198.59;4941148;28;48023;-62
2022/10/25 07:42:27;;;;;;;;;3.50;3.00;;;;;16.65;63.76;101202.09;4941581;28;45363;-61
2022/10/25 07:44:52;;;;;;;;;9.00;3.50;;;;;16.67;63.49;101199.44;4939821;28;51682;-61
2022/10/25 07:47:18;;;;;;;;;3.75;3.50;;;;;16.70;63.64;101204.63;4940803;28;51600;-61
2022/10/25 07:49:43;;;;;;;;;7.50;4.25;;;;;16.69;63.73;101206.41;4941229;28;45147;-61
2022/10/25 07:52:10;;;;;;;;;5.75;4.00;;;;;16.67;63.63;101207.38;4940263;28;45380;-61
2022/10/25 07:54:35;;;;;;;;;4.25;4.00;;;;;16.69;63.56;101208.19;4941176;28;45289;-60
2022/10/25 07:57:00;;;;;;;;;7.25;4.00;;;;;16.71;63.71;101201.06;4940971;28;46118;-60
2022/10/25 07:59:26;;;;;;;;;3.25;3.25;;;;;16.72;63.59;101213.41;4940683;28;49411;-60
2022/10/25 08:01:51;;;;;;;;;5.25;4.25;;;;;16.75;63.93;101213.28;4941226;28;45341;-61
2022/10/25 08:04:16;;;;;;;;;4.25;3.00;;;;;16.77;63.85;101219.44;4939864;28;45319;-60
2022/10/25 08:06:42;;;;;;;;;2.00;2.00;;;;;16.79;63.83;101211.41;4940698;28;59901;-60
2022/10/25 08:09:07;;;;;;;;;6.75;4.00;;;;;16.81;63.57;101218.41;4941085;28;45229;-60
2022/10/25 08:11:32;;;;;;;;;4.00;3.50;;;;;16.83;63.67;101207.72;4941546;28;45406;-60
2022/10/25 08:13:58;;;;;;;;;2.75;2.75;;;;;16.79;63.75;101191.06;4940995;28;45314;-60
2022/10/25 08:16:23;;;;;;;;;2.25;2.25;;;;;16.88;63.46;101201.38;4940939;28;46303;-61
2022/10/25 08:18:48;;;;;;;;;7.50;3.00;;;;;16.87;63.70;101202.28;4940947;28;45251;-61
2022/10/25 08:21:14;;;;;;;;;5.50;5.00;;;;;16.93;63.46;101208.34;4939462;28;48899;-61
2022/10/25 08:23:39;;;;;;;;;4.25;4.00;;;;;16.94;63.59;101199.47;4940867;28;45479;-61
2022/10/25 08:26:05;;;;;;;;;5.75;4.50;;;;;16.94;63.59;101191.50;4940888;28;46106;-61
2022/10/25 08:28:30;;;;;;;;;4.00;4.00;;;;;16.98;64.01;101196.66;4939550;28;45379;-62
2022/10/25 08:30:56;;;;;;;;;3.50;3.50;;;;;17.00;63.85;101204.56;4940920;28;45406;-61
2022/10/25 08:33:22;;;;;;;;;4.25;3.00;;;;;17.01;63.47;101204.50;4939686;28;45266;-61
2022/10/25 08:35:47;;;;;;;;;6.50;6.50;;;;;17.08;63.66;101202.53;4940794;28;46026;-61
2022/10/25 08:38:13;;;;;;;;;4.00;3.75;;;;;17.13;63.51;101200.59;4940235;28;50308;-61
2022/10/25 08:40:50;;;;;;;;;4.50;3.75;;;;;17.18;63.48;101193.31;4940689;28;45203;-62
2022/10/25 08:43:43;;;;;;;;;6.75;3.50;;;;;17.26;63.36;101189.50;4942187;28;45319;-62
2022/10/25 08:46:16;;;;;;;;;7.00;5.25;;;;;17.28;63.18;101187.69;4943643;28;45681;-62
2022/10/25 08:48:49;;;;;;;;;4.25;3.00;;;;;17.35;63.11;101198.03;4943735;28;45417;-62
2022/10/25 08:51:32;;;;;;;;;6.00;5.00;;;;;17.43;63.03;101195.09;4943814;28;45181;-62
2022/10/25 08:54:03;;;;;;;;;3.75;3.75;;;;;17.50;63.03;101195.75;4944107;28;45492;-62
2022/10/25 08:56:29;;;;;;;;;4.00;2.00;;;;;17.49;63.09;101178.94;4943608;28;46276;-61
2022/10/25 08:58:57;;;;;;;;;2.50;1.00;;;;;17.63;62.75;101190.88;4943473;28;45312;-62
2022/10/25 09:01:46;;;;;;;;;2.50;2.00;;;;;17.71;62.63;101199.44;4943526;28;45310;-62
2022/10/25 09:04:11;;;;;;;;;3.75;2.50;;;;;17.72;62.75;101201.16;4942015;28;45271;-62
2022/10/25 09:06:46;;;;;;;;;1.25;1.25;;;;;17.82;62.53;101191.94;4943494;28;46048;-62
2022/10/25 09:09:22;;;;;;;;;1.75;1.75;;;;;17.90;62.24;101186.31;4943841;28;45405;-62
2022/10/25 09:12:07;;;;;;;;;2.25;1.25;;;;;17.94;61.99;101195.09;4943532;28;45275;-61
2022/10/25 09:15:00;;;;;;;;;2.00;2.00;;;;;18.02;62.06;101198.31;4942257;28;45640;-61
2022/10/25 09:17:42;;;;;;;;;0.25;0.00;;;;;18.05;61.76;101198.19;4943110;28;46280;-62
2022/10/25 09:20:19;;;;;;;;;2.00;0.00;;;;;18.14;61.30;101199.63;4943389;28;45361;-62
2022/10/25 09:22:53;;;;;;;;;3.75;1.00;;;;;18.18;61.55;101195.94;4932169;28;45405;-62
2022/10/25 09:25:27;;;;;;;;;1.00;1.00;;;;;18.25;61.51;101185.91;4943364;28;45473;-62
2022/10/25 09:28:10;;;;;;;;;1.00;1.00;;;;;18.26;61.48;101177.84;4943095;28;46465;-62
2022/10/25 09:30:41;;;;;;;;;1.75;1.75;;;;;18.39;61.02;101182.69;4942645;28;45410;-62
2022/10/25 09:33:22;;;;;;;;;1.00;1.00;;;;;18.43;61.37;101200.28;4943403;28;45258;-62
2022/10/25 09:35:52;;;;;;;;;1.25;0.50;;;;;18.50;61.37;101201.75;4943395;28;45298;-62
2022/10/25 09:38:45;;;;;;;;;2.50;1.75;;;;;18.56;61.43;101205.97;4942889;28;45341;-62
2022/10/25 09:41:28;;;;;;;;;2.25;1.50;;;;;18.65;61.33;101198.50;4943005;28;45163;-62
2022/10/25 09:44:05;;;;;;;;;3.25;3.00;;;;;18.75;61.04;101184.78;4943408;28;45462;-62
2022/10/25 09:46:40;;;;;;;;;1.50;1.25;;;;;18.86;60.90;101189.69;4942598;28;45562;-62
2022/10/25 09:49:27;;;;;;;;;1.00;0.25;;;;;18.92;60.75;101197.44;4942814;28;46359;-62
2022/10/25 09:52:02;;;;;;;;;3.25;2.00;;;;;18.96;60.43;101188.41;4943273;28;45255;-62
2022/10/25 09:54:41;;;;;;;;;1.00;1.00;;;;;19.03;60.60;101196.97;4941377;28;45285;-62
2022/10/25 09:57:07;;;;;;;;;0.50;0.50;;;;;19.10;60.39;101193.13;4942772;28;45402;-62
2022/10/25 09:59:32;;;;;;;;;4.00;2.00;;;;;19.12;60.99;101200.13;4941303;28;46282;-61
2022/10/25 10:01:58;;;;;;;;;5.00;2.25;;;;;19.20;60.59;101193.59;4942775;28;45767;-62
2022/10/25 10:04:32;;;;;;;;;4.50;3.25;;;;;19.30;60.34;101182.47;4942911;28;45326;-62
2022/10/25 10:07:04;;;;;;;;;3.50;1.75;;;;;19.37;60.76;101179.53;4942998;28;45285;-61
2022/10/25 10:09:31;;;;;;;;;1.75;1.75;;;;;19.34;60.32;101169.88;4942584;28;45330;-61
2022/10/25 10:11:59;;;;;;;;;1.00;1.00;;;;;19.43;60.70;101166.81;4942515;28;45416;-61
2022/10/25 10:14:34;;;;;;;;;2.50;1.75;;;;;19.52;60.24;101185.97;4942628;28;45251;-61
2022/10/25 10:16:59;;;;;;;;;1.00;1.00;;;;;19.56;60.25;101177.78;4942465;28;45190;-61
2022/10/25 10:19:30;;;;;;;;;1.50;1.00;;;;;19.65;60.25;101185.38;4942502;28;45215;-62
2022/10/25 10:22:06;;;;;;;;;2.25;2.25;;;;;19.67;60.40;101187.09;4942608;28;45258;-62
2022/10/25 10:24:38;;;;;;;;;2.75;1.75;;;;;19.76;59.73;101176.00;4942737;28;45314;-62
2022/10/25 10:27:28;;;;;;;;;3.25;2.00;;;;;19.84;60.23;101186.38;4942166;28;45461;-61
2022/10/25 10:30:04;;;;;;;;;2.50;0.75;;;;;19.86;60.15;101182.69;4939389;28;46065;-61
2022/10/25 10:32:35;;;;;;;;;5.00;3.00;;;;;19.95;59.79;101178.75;4942256;28;45454;-62
2022/10/25 10:35:03;;;;;;;;;1.00;1.00;;;;;19.98;59.63;101175.91;4942389;28;45313;-62
2022/10/25 10:37:31;;;;;;;;;3.00;1.00;;;;;20.06;59.39;101176.44;4942443;28;45478;-62
2022/10/25 10:40:02;;;;;;;;;5.25;2.50;;;;;20.16;59.82;101170.66;4942156;28;45442;-62
2022/10/25 10:42:31;;;;;;;;;2.00;1.00;;;;;20.26;59.66;101178.16;4942152;28;45420;-62
2022/10/25 10:45:02;;;;;;;;;4.00;3.00;;;;;20.35;59.34;101171.50;4942245;28;45310;-62
2022/10/25 10:47:55;;;;;;;;;3.00;3.00;;;;;20.44;59.45;101176.38;4941663;28;45468;-62
2022/10/25 10:50:27;;;;;;;;;2.25;2.00;;;;;20.55;59.33;101170.53;4939156;28;46253;-62
2022/10/25 10:53:03;;;;;;;;;3.75;3.00;;;;;20.61;58.92;101180.03;4941928;28;45499;-61
2022/10/25 10:55:49;;;;;;;;;1.50;1.50;;;;;20.68;58.91;101164.56;4941991;28;45349;-61
2022/10/25 10:58:14;;;;;;;;;2.00;2.00;;;;;20.74;58.75;101167.84;4941733;28;45354;-61
2022/10/25 11:00:51;;;;;;;;;4.00;2.00;;;;;20.79;58.63;101159.56;4941766;28;45361;-61
2022/10/25 11:03:38;;;;;;;;;2.25;2.25;;;;;20.89;58.63;101159.97;4942164;28;45349;-62
2022/10/25 11:06:32;;;;;;;;;5.25;5.00;;;;;20.94;59.05;101150.81;4941084;28;45323;-62
2022/10/25 11:09:14;;;;;;;;;4.75;4.00;;;;;21.02;58.66;101147.72;4941684;28;45565;-62
2022/10/25 11:11:41;;;;;;;;;3.00;2.00;;;;;21.07;58.54;101139.50;4941588;28;45331;-61
2022/10/25 11:14:18;;;;;;;;;3.67;2.00;;;;;21.13;58.56;101135.63;4941736;28;45398;-62
2022/10/25 11:16:56;;;;;;;;;2.00;2.00;;;;;21.21;58.78;101142.28;4940496;28;45446;-62
2022/10/25 11:19:40;;;;;;;;;3.25;1.50;;;;;21.30;58.85;101132.06;4940150;28;45979;-62
2022/10/25 11:22:30;;;;;;;;;2.00;2.00;;;;;21.27;58.60;101133.94;4941530;28;46154;-61
2022/10/25 11:25:11;;;;;;;;;4.25;1.25;;;;;21.31;58.55;101129.31;4941601;28;45330;-62
2022/10/25 11:27:46;;;;;;;;;2.00;1.00;;;;;21.35;58.17;101133.53;4941779;28;45425;-62
2022/10/25 11:30:11;;;;;;;;;3.00;2.00;;;;;21.33;58.43;101130.06;4941511;28;45249;-61
2022/10/25 11:32:55;;;;;;;;;1.25;1.25;;;;;21.38;58.49;101129.84;4941257;28;46075;-62
2022/10/25 11:35:35;;;;;;;;;5.00;3.50;;;;;21.43;58.19;101125.97;4941457;28;45238;-62